sensor_id;sensor_type;location;lat;lon;timestamp;P1;durP1;ratioP1;P2;durP2;ratioP2
22904;SDS011;11619;50.140;8.518;2023-07-24T00:00:26;3.88;;;1.80;;
22904;SDS011;11619;50.140;8.518;2023-07-24T00:02:52;3.60;;;2.28;;
22904;SDS011;11619;50.140;8.518;2023-07-24T00:05:20;2.42;;;1.98;;
22904;SDS011;11619;50.140;8.518;2023-07-24T00:07:46;3.42;;;2.08;;
22904;SDS011;11619;50.140;8.518;2023-07-24T00:10:12;2.60;;;2.03;;
22904;SDS011;11619;50.140;8.518;2023-07-24T00:12:39;2.70;;;1.90;;
22904;SDS011;11619;50.140;8.518;2023-07-24T00:15:05;3.50;;;1.90;;
22904;SDS011;11619;50.140;8.518;2023-07-24T00:17:32;3.20;;;2.40;;
22904;SDS011;11619;50.140;8.518;2023-07-24T00:19:59;3.17;;;2.53;;
22904;SDS011;11619;50.140;8.518;2023-07-24T00:22:26;3.15;;;2.22;;
22904;SDS011;11619;50.140;8.518;2023-07-24T00:24:52;2.05;;;1.85;;
22904;SDS011;11619;50.140;8.518;2023-07-24T00:27:19;2.63;;;2.10;;
22904;SDS011;11619;50.140;8.518;2023-07-24T00:29:45;2.90;;;2.00;;
22904;SDS011;11619;50.140;8.518;2023-07-24T00:32:11;3.65;;;2.47;;
22904;SDS011;11619;50.140;8.518;2023-07-24T00:34:38;2.72;;;2.05;;
22904;SDS011;11619;50.140;8.518;2023-07-24T00:37:05;3.05;;;2.35;;
22904;SDS011;11619;50.140;8.518;2023-07-24T00:39:31;2.90;;;2.10;;
22904;SDS011;11619;50.140;8.518;2023-07-24T00:41:57;3.15;;;1.88;;
22904;SDS011;11619;50.140;8.518;2023-07-24T00:44:24;2.28;;;2.08;;
22904;SDS011;11619;50.140;8.518;2023-07-24T00:46:50;3.63;;;2.30;;
22904;SDS011;11619;50.140;8.518;2023-07-24T00:49:17;3.42;;;2.20;;
22904;SDS011;11619;50.140;8.518;2023-07-24T00:51:43;3.42;;;2.50;;
22904;SDS011;11619;50.140;8.518;2023-07-24T00:54:10;2.10;;;1.90;;
22904;SDS011;11619;50.140;8.518;2023-07-24T00:56:37;2.28;;;2.00;;
22904;SDS011;11619;50.140;8.518;2023-07-24T00:59:04;2.53;;;2.17;;
22904;SDS011;11619;50.140;8.518;2023-07-24T01:01:30;3.33;;;2.00;;
22904;SDS011;11619;50.140;8.518;2023-07-24T01:03:57;2.58;;;2.20;;
22904;SDS011;11619;50.140;8.518;2023-07-24T01:06:24;2.45;;;2.25;;
22904;SDS011;11619;50.140;8.518;2023-07-24T01:08:51;2.90;;;2.22;;
22904;SDS011;11619;50.140;8.518;2023-07-24T01:11:27;2.78;;;1.98;;
22904;SDS011;11619;50.140;8.518;2023-07-24T01:14:21;2.97;;;2.08;;
22904;SDS011;11619;50.140;8.518;2023-07-24T01:16:50;3.28;;;2.13;;
22904;SDS011;11619;50.140;8.518;2023-07-24T01:24:29;2.47;;;2.10;;
22904;SDS011;11619;50.140;8.518;2023-07-24T01:27:00;2.25;;;1.85;;
22904;SDS011;11619;50.140;8.518;2023-07-24T01:29:27;3.55;;;2.10;;
22904;SDS011;11619;50.140;8.518;2023-07-24T01:31:53;2.30;;;1.98;;
22904;SDS011;11619;50.140;8.518;2023-07-24T01:34:20;2.50;;;2.30;;
22904;SDS011;11619;50.140;8.518;2023-07-24T01:36:46;3.38;;;1.90;;
22904;SDS011;11619;50.140;8.518;2023-07-24T01:39:13;3.72;;;2.38;;
22904;SDS011;11619;50.140;8.518;2023-07-24T01:41:39;3.35;;;2.40;;
22904;SDS011;11619;50.140;8.518;2023-07-24T01:44:06;3.65;;;1.88;;
22904;SDS011;11619;50.140;8.518;2023-07-24T01:46:32;4.07;;;2.03;;
22904;SDS011;11619;50.140;8.518;2023-07-24T01:48:59;2.28;;;2.08;;
22904;SDS011;11619;50.140;8.518;2023-07-24T01:51:26;2.67;;;2.47;;
22904;SDS011;11619;50.140;8.518;2023-07-24T01:53:52;10.43;;;2.30;;
22904;SDS011;11619;50.140;8.518;2023-07-24T01:56:19;3.33;;;2.10;;
22904;SDS011;11619;50.140;8.518;2023-07-24T01:58:45;2.13;;;1.92;;
22904;SDS011;11619;50.140;8.518;2023-07-24T02:01:12;3.67;;;2.20;;
22904;SDS011;11619;50.140;8.518;2023-07-24T02:03:38;4.78;;;2.50;;
22904;SDS011;11619;50.140;8.518;2023-07-24T02:06:05;7.05;;;2.60;;
22904;SDS011;11619;50.140;8.518;2023-07-24T02:08:32;3.20;;;1.90;;
22904;SDS011;11619;50.140;8.518;2023-07-24T02:10:58;2.75;;;2.50;;
22904;SDS011;11619;50.140;8.518;2023-07-24T02:13:24;3.70;;;2.28;;
22904;SDS011;11619;50.140;8.518;2023-07-24T02:15:51;2.20;;;2.00;;
22904;SDS011;11619;50.140;8.518;2023-07-24T02:18:19;2.33;;;1.92;;
22904;SDS011;11619;50.140;8.518;2023-07-24T02:20:49;4.20;;;2.20;;
22904;SDS011;11619;50.140;8.518;2023-07-24T02:23:16;2.88;;;2.45;;
22904;SDS011;11619;50.140;8.518;2023-07-24T02:25:43;2.60;;;2.30;;
22904;SDS011;11619;50.140;8.518;2023-07-24T02:28:09;2.25;;;2.03;;
22904;SDS011;11619;50.140;8.518;2023-07-24T02:30:39;2.97;;;2.67;;
22904;SDS011;11619;50.140;8.518;2023-07-24T02:33:05;2.10;;;1.90;;
22904;SDS011;11619;50.140;8.518;2023-07-24T02:35:37;2.35;;;1.88;;
22904;SDS011;11619;50.140;8.518;2023-07-24T02:38:05;2.22;;;2.00;;
22904;SDS011;11619;50.140;8.518;2023-07-24T02:40:31;3.78;;;2.45;;
22904;SDS011;11619;50.140;8.518;2023-07-24T02:42:58;3.55;;;1.90;;
22904;SDS011;11619;50.140;8.518;2023-07-24T02:45:24;3.03;;;1.90;;
22904;SDS011;11619;50.140;8.518;2023-07-24T02:47:51;3.72;;;2.45;;
22904;SDS011;11619;50.140;8.518;2023-07-24T02:50:17;2.95;;;2.70;;
22904;SDS011;11619;50.140;8.518;2023-07-24T02:52:44;4.13;;;2.03;;
22904;SDS011;11619;50.140;8.518;2023-07-24T02:55:10;2.95;;;2.05;;
22904;SDS011;11619;50.140;8.518;2023-07-24T02:57:37;2.25;;;1.98;;
22904;SDS011;11619;50.140;8.518;2023-07-24T03:00:03;2.50;;;2.30;;
22904;SDS011;11619;50.140;8.518;2023-07-24T03:02:30;5.63;;;2.17;;
22904;SDS011;11619;50.140;8.518;2023-07-24T03:04:57;4.20;;;2.15;;
22904;SDS011;11619;50.140;8.518;2023-07-24T03:07:23;3.35;;;2.00;;
22904;SDS011;11619;50.140;8.518;2023-07-24T03:09:50;2.65;;;2.35;;
22904;SDS011;11619;50.140;8.518;2023-07-24T03:12:16;4.72;;;2.10;;
22904;SDS011;11619;50.140;8.518;2023-07-24T03:14:43;3.40;;;2.10;;
22904;SDS011;11619;50.140;8.518;2023-07-24T03:17:09;2.40;;;1.83;;
22904;SDS011;11619;50.140;8.518;2023-07-24T03:19:36;2.67;;;2.22;;
22904;SDS011;11619;50.140;8.518;2023-07-24T03:22:02;3.55;;;2.30;;
22904;SDS011;11619;50.140;8.518;2023-07-24T03:24:29;2.92;;;2.28;;
22904;SDS011;11619;50.140;8.518;2023-07-24T03:26:56;3.42;;;2.22;;
22904;SDS011;11619;50.140;8.518;2023-07-24T03:29:22;3.78;;;2.25;;
22904;SDS011;11619;50.140;8.518;2023-07-24T03:31:48;4.10;;;2.38;;
22904;SDS011;11619;50.140;8.518;2023-07-24T03:34:15;2.40;;;1.92;;
22904;SDS011;11619;50.140;8.518;2023-07-24T03:36:41;2.53;;;2.33;;
22904;SDS011;11619;50.140;8.518;2023-07-24T03:39:11;2.72;;;2.25;;
22904;SDS011;11619;50.140;8.518;2023-07-24T03:41:38;3.45;;;2.47;;
22904;SDS011;11619;50.140;8.518;2023-07-24T03:44:04;2.60;;;2.40;;
22904;SDS011;11619;50.140;8.518;2023-07-24T03:46:31;5.20;;;2.58;;
22904;SDS011;11619;50.140;8.518;2023-07-24T03:48:58;4.03;;;2.28;;
22904;SDS011;11619;50.140;8.518;2023-07-24T03:51:25;3.47;;;2.30;;
22904;SDS011;11619;50.140;8.518;2023-07-24T03:53:51;2.85;;;2.22;;
22904;SDS011;11619;50.140;8.518;2023-07-24T03:56:20;2.83;;;2.47;;
22904;SDS011;11619;50.140;8.518;2023-07-24T03:58:46;3.20;;;2.20;;
22904;SDS011;11619;50.140;8.518;2023-07-24T04:01:13;2.78;;;2.33;;
22904;SDS011;11619;50.140;8.518;2023-07-24T04:03:39;3.13;;;2.38;;
22904;SDS011;11619;50.140;8.518;2023-07-24T04:06:06;2.90;;;2.50;;
22904;SDS011;11619;50.140;8.518;2023-07-24T04:08:32;3.78;;;2.28;;
22904;SDS011;11619;50.140;8.518;2023-07-24T04:10:58;2.47;;;2.20;;
22904;SDS011;11619;50.140;8.518;2023-07-24T04:13:25;3.08;;;2.70;;
22904;SDS011;11619;50.140;8.518;2023-07-24T04:15:51;4.13;;;2.45;;
22904;SDS011;11619;50.140;8.518;2023-07-24T04:18:18;3.80;;;2.58;;
22904;SDS011;11619;50.140;8.518;2023-07-24T04:20:44;2.80;;;2.40;;
22904;SDS011;11619;50.140;8.518;2023-07-24T04:23:11;2.95;;;2.65;;
22904;SDS011;11619;50.140;8.518;2023-07-24T04:25:37;3.53;;;2.42;;
22904;SDS011;11619;50.140;8.518;2023-07-24T04:28:04;3.25;;;2.50;;
22904;SDS011;11619;50.140;8.518;2023-07-24T04:30:30;5.50;;;2.70;;
22904;SDS011;11619;50.140;8.518;2023-07-24T04:32:57;6.80;;;2.70;;
22904;SDS011;11619;50.140;8.518;2023-07-24T04:35:23;6.53;;;3.08;;
22904;SDS011;11619;50.140;8.518;2023-07-24T04:37:50;3.70;;;2.45;;
22904;SDS011;11619;50.140;8.518;2023-07-24T04:40:17;3.30;;;2.38;;
22904;SDS011;11619;50.140;8.518;2023-07-24T04:42:43;6.70;;;2.67;;
22904;SDS011;11619;50.140;8.518;2023-07-24T04:45:10;2.65;;;2.45;;
22904;SDS011;11619;50.140;8.518;2023-07-24T04:47:36;3.38;;;2.60;;
22904;SDS011;11619;50.140;8.518;2023-07-24T04:50:04;2.65;;;2.20;;
22904;SDS011;11619;50.140;8.518;2023-07-24T04:52:31;3.10;;;2.80;;
22904;SDS011;11619;50.140;8.518;2023-07-24T04:54:57;3.22;;;2.80;;
22904;SDS011;11619;50.140;8.518;2023-07-24T04:57:24;3.05;;;2.58;;
22904;SDS011;11619;50.140;8.518;2023-07-24T04:59:50;5.57;;;2.55;;
22904;SDS011;11619;50.140;8.518;2023-07-24T05:02:17;3.55;;;2.83;;
22904;SDS011;11619;50.140;8.518;2023-07-24T05:04:43;3.15;;;2.65;;
22904;SDS011;11619;50.140;8.518;2023-07-24T05:07:10;4.55;;;3.17;;
22904;SDS011;11619;50.140;8.518;2023-07-24T05:09:36;3.08;;;2.78;;
22904;SDS011;11619;50.140;8.518;2023-07-24T05:12:03;2.83;;;2.50;;
22904;SDS011;11619;50.140;8.518;2023-07-24T05:14:30;4.53;;;2.72;;
22904;SDS011;11619;50.140;8.518;2023-07-24T05:16:56;2.95;;;2.67;;
22904;SDS011;11619;50.140;8.518;2023-07-24T05:19:23;4.07;;;2.97;;
22904;SDS011;11619;50.140;8.518;2023-07-24T05:21:49;4.57;;;2.85;;
22904;SDS011;11619;50.140;8.518;2023-07-24T05:24:15;3.47;;;3.00;;
22904;SDS011;11619;50.140;8.518;2023-07-24T05:26:42;4.78;;;2.78;;
22904;SDS011;11619;50.140;8.518;2023-07-24T05:29:08;4.93;;;2.75;;
22904;SDS011;11619;50.140;8.518;2023-07-24T05:31:35;6.05;;;2.97;;
22904;SDS011;11619;50.140;8.518;2023-07-24T05:34:02;6.82;;;3.50;;
22904;SDS011;11619;50.140;8.518;2023-07-24T05:36:29;18.25;;;7.45;;
22904;SDS011;11619;50.140;8.518;2023-07-24T05:38:56;4.93;;;3.90;;
22904;SDS011;11619;50.140;8.518;2023-07-24T05:41:23;3.83;;;2.90;;
22904;SDS011;11619;50.140;8.518;2023-07-24T05:43:50;4.22;;;2.70;;
22904;SDS011;11619;50.140;8.518;2023-07-24T05:46:16;3.92;;;2.78;;
22904;SDS011;11619;50.140;8.518;2023-07-24T05:48:43;3.00;;;2.70;;
22904;SDS011;11619;50.140;8.518;2023-07-24T05:51:09;3.60;;;2.90;;
22904;SDS011;11619;50.140;8.518;2023-07-24T05:53:36;3.95;;;2.53;;
22904;SDS011;11619;50.140;8.518;2023-07-24T05:56:02;2.95;;;2.63;;
22904;SDS011;11619;50.140;8.518;2023-07-24T05:58:29;3.47;;;2.58;;
22904;SDS011;11619;50.140;8.518;2023-07-24T06:00:56;2.90;;;2.60;;
22904;SDS011;11619;50.140;8.518;2023-07-24T06:03:23;5.55;;;2.55;;
22904;SDS011;11619;50.140;8.518;2023-07-24T06:05:50;5.25;;;2.85;;
22904;SDS011;11619;50.140;8.518;2023-07-24T06:08:20;3.10;;;2.80;;
22904;SDS011;11619;50.140;8.518;2023-07-24T06:10:47;4.65;;;2.83;;
22904;SDS011;11619;50.140;8.518;2023-07-24T06:13:15;3.42;;;2.88;;
22904;SDS011;11619;50.140;8.518;2023-07-24T06:15:42;3.53;;;2.90;;
22904;SDS011;11619;50.140;8.518;2023-07-24T06:18:09;2.60;;;2.40;;
22904;SDS011;11619;50.140;8.518;2023-07-24T06:20:36;3.72;;;2.60;;
22904;SDS011;11619;50.140;8.518;2023-07-24T06:23:02;2.75;;;2.50;;
22904;SDS011;11619;50.140;8.518;2023-07-24T06:25:30;2.90;;;2.42;;
22904;SDS011;11619;50.140;8.518;2023-07-24T06:27:57;2.60;;;2.08;;
22904;SDS011;11619;50.140;8.518;2023-07-24T06:30:24;3.20;;;2.67;;
22904;SDS011;11619;50.140;8.518;2023-07-24T06:32:50;2.45;;;2.25;;
22904;SDS011;11619;50.140;8.518;2023-07-24T06:35:17;3.08;;;2.47;;
22904;SDS011;11619;50.140;8.518;2023-07-24T06:37:43;4.18;;;2.40;;
22904;SDS011;11619;50.140;8.518;2023-07-24T06:40:11;5.15;;;2.78;;
22904;SDS011;11619;50.140;8.518;2023-07-24T06:42:37;3.97;;;2.45;;
22904;SDS011;11619;50.140;8.518;2023-07-24T06:45:04;4.97;;;2.88;;
22904;SDS011;11619;50.140;8.518;2023-07-24T06:47:33;4.22;;;2.30;;
22904;SDS011;11619;50.140;8.518;2023-07-24T06:50:00;4.25;;;2.75;;
22904;SDS011;11619;50.140;8.518;2023-07-24T06:52:27;5.07;;;2.80;;
22904;SDS011;11619;50.140;8.518;2023-07-24T06:54:54;4.15;;;2.30;;
22904;SDS011;11619;50.140;8.518;2023-07-24T06:57:20;4.38;;;3.65;;
22904;SDS011;11619;50.140;8.518;2023-07-24T06:59:47;5.75;;;3.83;;
22904;SDS011;11619;50.140;8.518;2023-07-24T07:02:13;8.15;;;3.67;;
22904;SDS011;11619;50.140;8.518;2023-07-24T07:04:39;5.28;;;4.07;;
22904;SDS011;11619;50.140;8.518;2023-07-24T07:07:06;6.75;;;3.85;;
22904;SDS011;11619;50.140;8.518;2023-07-24T07:09:32;6.88;;;3.78;;
22904;SDS011;11619;50.140;8.518;2023-07-24T07:11:59;4.63;;;3.70;;
22904;SDS011;11619;50.140;8.518;2023-07-24T07:14:26;5.60;;;3.83;;
22904;SDS011;11619;50.140;8.518;2023-07-24T07:16:52;4.53;;;4.05;;
22904;SDS011;11619;50.140;8.518;2023-07-24T07:19:18;7.70;;;3.58;;
22904;SDS011;11619;50.140;8.518;2023-07-24T07:21:45;5.95;;;4.15;;
22904;SDS011;11619;50.140;8.518;2023-07-24T07:24:11;5.25;;;4.10;;
22904;SDS011;11619;50.140;8.518;2023-07-24T07:26:38;4.78;;;4.00;;
22904;SDS011;11619;50.140;8.518;2023-07-24T07:29:04;5.82;;;3.75;;
22904;SDS011;11619;50.140;8.518;2023-07-24T07:31:31;4.97;;;4.03;;
22904;SDS011;11619;50.140;8.518;2023-07-24T07:33:57;4.60;;;3.28;;
22904;SDS011;11619;50.140;8.518;2023-07-24T07:36:24;4.75;;;3.42;;
22904;SDS011;11619;50.140;8.518;2023-07-24T07:38:50;8.27;;;3.30;;
22904;SDS011;11619;50.140;8.518;2023-07-24T07:41:17;7.00;;;3.38;;
22904;SDS011;11619;50.140;8.518;2023-07-24T07:43:43;4.20;;;3.63;;
22904;SDS011;11619;50.140;8.518;2023-07-24T07:46:10;7.47;;;3.80;;
22904;SDS011;11619;50.140;8.518;2023-07-24T07:48:37;5.82;;;3.60;;
22904;SDS011;11619;50.140;8.518;2023-07-24T07:51:03;5.43;;;3.33;;
22904;SDS011;11619;50.140;8.518;2023-07-24T07:53:30;9.07;;;3.50;;
22904;SDS011;11619;50.140;8.518;2023-07-24T07:55:58;7.97;;;3.53;;
22904;SDS011;11619;50.140;8.518;2023-07-24T07:58:25;7.22;;;2.90;;
22904;SDS011;11619;50.140;8.518;2023-07-24T08:00:52;3.78;;;3.40;;
22904;SDS011;11619;50.140;8.518;2023-07-24T08:03:18;5.25;;;3.22;;
22904;SDS011;11619;50.140;8.518;2023-07-24T08:05:45;6.65;;;3.22;;
22904;SDS011;11619;50.140;8.518;2023-07-24T08:08:11;5.40;;;3.60;;
22904;SDS011;11619;50.140;8.518;2023-07-24T08:10:38;6.13;;;3.50;;
22904;SDS011;11619;50.140;8.518;2023-07-24T08:13:05;4.32;;;3.17;;
22904;SDS011;11619;50.140;8.518;2023-07-24T08:15:34;3.85;;;3.20;;
22904;SDS011;11619;50.140;8.518;2023-07-24T08:18:02;3.85;;;3.30;;
22904;SDS011;11619;50.140;8.518;2023-07-24T08:20:30;4.10;;;3.70;;
22904;SDS011;11619;50.140;8.518;2023-07-24T08:22:57;6.13;;;3.70;;
22904;SDS011;11619;50.140;8.518;2023-07-24T08:25:23;5.45;;;3.20;;
22904;SDS011;11619;50.140;8.518;2023-07-24T08:27:50;7.18;;;3.00;;
22904;SDS011;11619;50.140;8.518;2023-07-24T08:30:30;6.32;;;3.50;;
22904;SDS011;11619;50.140;8.518;2023-07-24T08:32:58;3.67;;;2.53;;
22904;SDS011;11619;50.140;8.518;2023-07-24T08:35:25;7.07;;;3.67;;
22904;SDS011;11619;50.140;8.518;2023-07-24T08:37:51;4.97;;;3.88;;
22904;SDS011;11619;50.140;8.518;2023-07-24T08:40:18;6.10;;;3.50;;
22904;SDS011;11619;50.140;8.518;2023-07-24T08:42:44;5.85;;;3.67;;
22904;SDS011;11619;50.140;8.518;2023-07-24T08:45:12;6.05;;;3.20;;
22904;SDS011;11619;50.140;8.518;2023-07-24T08:47:43;3.95;;;3.53;;
22904;SDS011;11619;50.140;8.518;2023-07-24T08:50:11;7.68;;;3.50;;
22904;SDS011;11619;50.140;8.518;2023-07-24T08:52:38;5.32;;;3.30;;
22904;SDS011;11619;50.140;8.518;2023-07-24T08:55:05;5.43;;;3.38;;
22904;SDS011;11619;50.140;8.518;2023-07-24T08:57:32;4.15;;;3.58;;
22904;SDS011;11619;50.140;8.518;2023-07-24T08:59:58;5.05;;;3.50;;
22904;SDS011;11619;50.140;8.518;2023-07-24T09:02:26;7.93;;;3.78;;
22904;SDS011;11619;50.140;8.518;2023-07-24T09:04:53;3.60;;;3.30;;
22904;SDS011;11619;50.140;8.518;2023-07-24T09:07:19;8.73;;;3.83;;
22904;SDS011;11619;50.140;8.518;2023-07-24T09:09:46;6.22;;;3.38;;
22904;SDS011;11619;50.140;8.518;2023-07-24T09:12:15;5.32;;;3.40;;
22904;SDS011;11619;50.140;8.518;2023-07-24T09:14:42;4.28;;;3.03;;
22904;SDS011;11619;50.140;8.518;2023-07-24T09:17:11;4.15;;;3.70;;
22904;SDS011;11619;50.140;8.518;2023-07-24T09:19:38;4.75;;;2.92;;
22904;SDS011;11619;50.140;8.518;2023-07-24T09:22:08;5.53;;;3.40;;
22904;SDS011;11619;50.140;8.518;2023-07-24T09:24:36;3.97;;;3.53;;
22904;SDS011;11619;50.140;8.518;2023-07-24T09:27:04;3.67;;;2.90;;
22904;SDS011;11619;50.140;8.518;2023-07-24T09:29:33;5.22;;;3.38;;
22904;SDS011;11619;50.140;8.518;2023-07-24T09:32:00;9.63;;;3.85;;
22904;SDS011;11619;50.140;8.518;2023-07-24T09:34:27;4.65;;;3.13;;
22904;SDS011;11619;50.140;8.518;2023-07-24T09:36:53;5.72;;;3.05;;
22904;SDS011;11619;50.140;8.518;2023-07-24T09:39:23;6.40;;;3.45;;
22904;SDS011;11619;50.140;8.518;2023-07-24T09:42:02;6.82;;;3.30;;
22904;SDS011;11619;50.140;8.518;2023-07-24T09:44:30;4.45;;;3.17;;
22904;SDS011;11619;50.140;8.518;2023-07-24T09:46:57;5.00;;;3.25;;
22904;SDS011;11619;50.140;8.518;2023-07-24T09:49:43;4.00;;;3.60;;
22904;SDS011;11619;50.140;8.518;2023-07-24T09:52:10;5.95;;;3.10;;
22904;SDS011;11619;50.140;8.518;2023-07-24T09:54:38;4.00;;;2.88;;
22904;SDS011;11619;50.140;8.518;2023-07-24T09:57:15;5.78;;;3.15;;
22904;SDS011;11619;50.140;8.518;2023-07-24T09:59:47;4.50;;;3.10;;
22904;SDS011;11619;50.140;8.518;2023-07-24T10:02:14;4.60;;;2.92;;
22904;SDS011;11619;50.140;8.518;2023-07-24T10:04:42;6.20;;;3.35;;
22904;SDS011;11619;50.140;8.518;2023-07-24T10:07:08;4.95;;;3.78;;
22904;SDS011;11619;50.140;8.518;2023-07-24T10:09:35;6.10;;;3.67;;
22904;SDS011;11619;50.140;8.518;2023-07-24T10:12:03;7.80;;;4.07;;
22904;SDS011;11619;50.140;8.518;2023-07-24T10:14:29;9.00;;;4.47;;
22904;SDS011;11619;50.140;8.518;2023-07-24T10:16:56;7.50;;;4.05;;
22904;SDS011;11619;50.140;8.518;2023-07-24T10:19:23;7.47;;;4.45;;
22904;SDS011;11619;50.140;8.518;2023-07-24T10:21:50;4.85;;;4.18;;
22904;SDS011;11619;50.140;8.518;2023-07-24T10:24:17;6.63;;;4.05;;
22904;SDS011;11619;50.140;8.518;2023-07-24T10:27:04;8.75;;;3.92;;
22904;SDS011;11619;50.140;8.518;2023-07-24T10:29:33;9.35;;;4.53;;
22904;SDS011;11619;50.140;8.518;2023-07-24T10:32:00;8.68;;;3.50;;
22904;SDS011;11619;50.140;8.518;2023-07-24T10:34:55;7.78;;;3.90;;
22904;SDS011;11619;50.140;8.518;2023-07-24T10:37:33;6.95;;;3.70;;
22904;SDS011;11619;50.140;8.518;2023-07-24T10:40:01;5.82;;;3.78;;
22904;SDS011;11619;50.140;8.518;2023-07-24T10:42:29;6.07;;;4.07;;
22904;SDS011;11619;50.140;8.518;2023-07-24T10:45:06;4.60;;;4.13;;
22904;SDS011;11619;50.140;8.518;2023-07-24T10:47:33;4.45;;;3.60;;
22904;SDS011;11619;50.140;8.518;2023-07-24T10:50:00;4.47;;;4.07;;
22904;SDS011;11619;50.140;8.518;2023-07-24T10:52:30;5.75;;;4.22;;
22904;SDS011;11619;50.140;8.518;2023-07-24T10:55:04;4.25;;;3.85;;
22904;SDS011;11619;50.140;8.518;2023-07-24T10:57:31;5.13;;;4.38;;
22904;SDS011;11619;50.140;8.518;2023-07-24T10:59:58;6.78;;;4.55;;
22904;SDS011;11619;50.140;8.518;2023-07-24T11:02:25;6.55;;;4.88;;
22904;SDS011;11619;50.140;8.518;2023-07-24T11:04:52;8.85;;;4.57;;
22904;SDS011;11619;50.140;8.518;2023-07-24T11:07:19;6.20;;;4.60;;
22904;SDS011;11619;50.140;8.518;2023-07-24T11:09:45;5.50;;;4.43;;
22904;SDS011;11619;50.140;8.518;2023-07-24T11:12:15;4.72;;;4.18;;
22904;SDS011;11619;50.140;8.518;2023-07-24T11:14:46;4.82;;;4.32;;
22904;SDS011;11619;50.140;8.518;2023-07-24T11:17:16;7.30;;;4.63;;
22904;SDS011;11619;50.140;8.518;2023-07-24T11:19:43;5.13;;;4.05;;
22904;SDS011;11619;50.140;8.518;2023-07-24T11:22:11;5.55;;;4.10;;
22904;SDS011;11619;50.140;8.518;2023-07-24T11:24:47;8.20;;;4.15;;
22904;SDS011;11619;50.140;8.518;2023-07-24T11:27:14;6.10;;;4.47;;
22904;SDS011;11619;50.140;8.518;2023-07-24T11:29:46;5.47;;;4.70;;
22904;SDS011;11619;50.140;8.518;2023-07-24T11:32:18;4.00;;;3.70;;
22904;SDS011;11619;50.140;8.518;2023-07-24T11:34:46;5.93;;;4.38;;
22904;SDS011;11619;50.140;8.518;2023-07-24T11:37:13;4.55;;;3.80;;
22904;SDS011;11619;50.140;8.518;2023-07-24T11:39:41;5.00;;;3.97;;
22904;SDS011;11619;50.140;8.518;2023-07-24T11:42:07;4.80;;;3.90;;
22904;SDS011;11619;50.140;8.518;2023-07-24T11:44:34;4.65;;;3.63;;
22904;SDS011;11619;50.140;8.518;2023-07-24T11:47:04;7.28;;;4.10;;
22904;SDS011;11619;50.140;8.518;2023-07-24T11:49:32;7.70;;;4.53;;
22904;SDS011;11619;50.140;8.518;2023-07-24T11:51:59;4.40;;;4.00;;
22904;SDS011;11619;50.140;8.518;2023-07-24T11:54:34;4.78;;;4.07;;
22904;SDS011;11619;50.140;8.518;2023-07-24T11:57:01;4.32;;;3.75;;
22904;SDS011;11619;50.140;8.518;2023-07-24T11:59:28;5.60;;;4.18;;
22904;SDS011;11619;50.140;8.518;2023-07-24T12:01:54;5.97;;;4.30;;
22904;SDS011;11619;50.140;8.518;2023-07-24T12:04:21;4.78;;;4.22;;
22904;SDS011;11619;50.140;8.518;2023-07-24T12:06:47;4.30;;;3.90;;
22904;SDS011;11619;50.140;8.518;2023-07-24T12:09:13;5.70;;;3.83;;
22904;SDS011;11619;50.140;8.518;2023-07-24T12:11:43;3.90;;;3.60;;
22904;SDS011;11619;50.140;8.518;2023-07-24T12:14:12;4.82;;;4.22;;
22904;SDS011;11619;50.140;8.518;2023-07-24T12:16:39;3.88;;;3.50;;
22904;SDS011;11619;50.140;8.518;2023-07-24T12:19:05;5.95;;;4.75;;
22904;SDS011;11619;50.140;8.518;2023-07-24T12:21:32;7.57;;;4.00;;
22904;SDS011;11619;50.140;8.518;2023-07-24T12:23:59;4.57;;;3.42;;
22904;SDS011;11619;50.140;8.518;2023-07-24T12:26:26;9.38;;;3.95;;
22904;SDS011;11619;50.140;8.518;2023-07-24T12:28:53;5.82;;;3.55;;
22904;SDS011;11619;50.140;8.518;2023-07-24T12:31:20;3.90;;;3.50;;
22904;SDS011;11619;50.140;8.518;2023-07-24T12:33:47;4.60;;;3.85;;
22904;SDS011;11619;50.140;8.518;2023-07-24T12:36:13;4.28;;;3.45;;
22904;SDS011;11619;50.140;8.518;2023-07-24T12:38:39;4.03;;;3.33;;
22904;SDS011;11619;50.140;8.518;2023-07-24T12:41:06;3.85;;;3.53;;
22904;SDS011;11619;50.140;8.518;2023-07-24T12:43:32;6.03;;;3.67;;
22904;SDS011;11619;50.140;8.518;2023-07-24T12:45:59;6.32;;;4.15;;
22904;SDS011;11619;50.140;8.518;2023-07-24T12:48:25;5.53;;;3.75;;
22904;SDS011;11619;50.140;8.518;2023-07-24T12:50:51;6.20;;;3.90;;
22904;SDS011;11619;50.140;8.518;2023-07-24T12:53:18;8.48;;;3.90;;
22904;SDS011;11619;50.140;8.518;2023-07-24T12:55:50;4.63;;;4.00;;
22904;SDS011;11619;50.140;8.518;2023-07-24T12:58:16;4.70;;;4.28;;
22904;SDS011;11619;50.140;8.518;2023-07-24T13:00:43;10.90;;;4.28;;
22904;SDS011;11619;50.140;8.518;2023-07-24T13:03:11;5.28;;;4.00;;
22904;SDS011;11619;50.140;8.518;2023-07-24T13:05:38;3.70;;;3.40;;
22904;SDS011;11619;50.140;8.518;2023-07-24T13:08:05;5.28;;;3.65;;
22904;SDS011;11619;50.140;8.518;2023-07-24T13:10:31;4.22;;;3.83;;
22904;SDS011;11619;50.140;8.518;2023-07-24T13:12:58;5.13;;;3.83;;
22904;SDS011;11619;50.140;8.518;2023-07-24T13:15:27;8.02;;;3.83;;
22904;SDS011;11619;50.140;8.518;2023-07-24T13:17:55;5.00;;;3.72;;
22904;SDS011;11619;50.140;8.518;2023-07-24T13:20:22;5.28;;;3.58;;
22904;SDS011;11619;50.140;8.518;2023-07-24T13:22:48;5.35;;;3.38;;
22904;SDS011;11619;50.140;8.518;2023-07-24T13:25:15;4.18;;;3.10;;
22904;SDS011;11619;50.140;8.518;2023-07-24T13:27:41;4.28;;;3.13;;
22904;SDS011;11619;50.140;8.518;2023-07-24T13:30:08;5.05;;;3.15;;
22904;SDS011;11619;50.140;8.518;2023-07-24T13:32:34;4.45;;;3.70;;
22904;SDS011;11619;50.140;8.518;2023-07-24T13:35:01;6.97;;;3.88;;
22904;SDS011;11619;50.140;8.518;2023-07-24T13:37:27;5.95;;;3.75;;
22904;SDS011;11619;50.140;8.518;2023-07-24T13:39:54;5.95;;;4.07;;
22904;SDS011;11619;50.140;8.518;2023-07-24T13:42:20;7.75;;;4.07;;
22904;SDS011;11619;50.140;8.518;2023-07-24T13:44:47;5.78;;;3.50;;
22904;SDS011;11619;50.140;8.518;2023-07-24T13:47:13;5.55;;;3.58;;
22904;SDS011;11619;50.140;8.518;2023-07-24T13:49:40;8.27;;;3.85;;
22904;SDS011;11619;50.140;8.518;2023-07-24T13:52:06;3.80;;;3.30;;
22904;SDS011;11619;50.140;8.518;2023-07-24T13:54:32;5.43;;;4.50;;
22904;SDS011;11619;50.140;8.518;2023-07-24T13:56:59;4.25;;;3.58;;
22904;SDS011;11619;50.140;8.518;2023-07-24T13:59:25;5.32;;;3.70;;
22904;SDS011;11619;50.140;8.518;2023-07-24T14:01:52;10.25;;;4.10;;
22904;SDS011;11619;50.140;8.518;2023-07-24T14:04:19;5.95;;;4.18;;
22904;SDS011;11619;50.140;8.518;2023-07-24T14:06:45;4.75;;;3.95;;
22904;SDS011;11619;50.140;8.518;2023-07-24T14:09:12;4.55;;;3.67;;
22904;SDS011;11619;50.140;8.518;2023-07-24T14:11:38;4.47;;;3.92;;
22904;SDS011;11619;50.140;8.518;2023-07-24T14:14:05;5.57;;;4.13;;
22904;SDS011;11619;50.140;8.518;2023-07-24T14:16:31;6.45;;;4.60;;
22904;SDS011;11619;50.140;8.518;2023-07-24T14:18:58;4.82;;;4.20;;
22904;SDS011;11619;50.140;8.518;2023-07-24T14:21:24;4.75;;;3.33;;
22904;SDS011;11619;50.140;8.518;2023-07-24T14:23:51;3.83;;;3.53;;
22904;SDS011;11619;50.140;8.518;2023-07-24T14:26:17;5.38;;;3.10;;
22904;SDS011;11619;50.140;8.518;2023-07-24T14:28:43;4.75;;;3.58;;
22904;SDS011;11619;50.140;8.518;2023-07-24T14:31:10;5.75;;;3.40;;
22904;SDS011;11619;50.140;8.518;2023-07-24T14:33:37;3.05;;;2.75;;
22904;SDS011;11619;50.140;8.518;2023-07-24T14:36:03;2.92;;;2.63;;
22904;SDS011;11619;50.140;8.518;2023-07-24T14:38:30;3.40;;;2.92;;
22904;SDS011;11619;50.140;8.518;2023-07-24T14:40:56;2.72;;;2.47;;
22904;SDS011;11619;50.140;8.518;2023-07-24T14:43:23;4.38;;;2.65;;
22904;SDS011;11619;50.140;8.518;2023-07-24T14:45:50;3.15;;;2.85;;
22904;SDS011;11619;50.140;8.518;2023-07-24T14:48:16;3.40;;;3.10;;
22904;SDS011;11619;50.140;8.518;2023-07-24T14:50:43;9.18;;;3.20;;
22904;SDS011;11619;50.140;8.518;2023-07-24T14:53:10;3.33;;;3.03;;